METAR Data
IDs: Format: Raw Decoded Include TAF

Data at: 1753 UTC 25 Mar 2019

K66R 251735Z AUTO 34005KT 10SM BKN023 OVC030 27/18 A3014 RMK AO2 T02660177
K66R 251715Z AUTO 31004KT 10SM BKN021 BKN026 26/18 A3014 RMK AO2 T02630177
K66R 251655Z AUTO 30003KT 10SM SCT017 SCT050 26/18 A3015 RMK AO2 T02560181
K66R 251635Z AUTO 26004KT 10SM SCT017 SCT045 BKN050 25/18 A3015 RMK AO2 T02470183
K66R 251615Z AUTO 33004KT 10SM SCT021 BKN045 BKN050 24/18 A3015 RMK AO2 T02430184
K66R 251555Z AUTO 34004KT 10SM OVC021 22/18 A3016 RMK AO2 T02190182
K66R 251535Z AUTO 33004KT 10SM SCT015 OVC021 21/18 A3017 RMK AO2 T02120181
K66R 251515Z AUTO 34004KT 10SM BKN012 OVC021 21/19 A3015 RMK AO2 T02120185
K66R 251455Z AUTO 32004KT 10SM BKN012 OVC021 21/19 A3015 RMK AO2 T02130185
K66R 251435Z AUTO 00000KT 10SM SCT010 BKN021 22/19 A3013 RMK AO2 T02170188
K66R 251415Z AUTO 00000KT 10SM BKN019 21/20 A3012 RMK AO2 T02140199
K66R 251355Z AUTO 00000KT 10SM OVC017 20/19 A3011 RMK AO2 T02040191
K66R 251335Z AUTO 00000KT 10SM OVC017 20/19 A3011 RMK AO2 T02000187
K66R 251315Z AUTO 00000KT 10SM OVC015 20/19 A3009 RMK AO2 T01970185
K66R 251255Z AUTO 00000KT 7SM OVC015 20/18 A3009 RMK AO2 T01960183
K66R 251235Z AUTO 00000KT 10SM OVC015 20/18 A3008 RMK AO2 T01950182
K66R 251215Z AUTO 00000KT 10SM OVC015 20/18 A3007 RMK AO2 T01960183
K66R 251155Z AUTO 00000KT 7SM SCT006 OVC015 20/18 A3007 RMK AO2 T01960183 10198 20171
K66R 251135Z AUTO 23003KT 10SM BKN008 OVC015 20/18 A3006 RMK AO2 T01960183
K66R 251115Z AUTO 21004KT 7SM BKN006 OVC013 20/18 A3005 RMK AO2 T01960183
K66R 251055Z AUTO 22003KT 7SM BKN004 OVC013 20/18 A3005 RMK AO2 T01960183
K66R 251035Z AUTO 21005KT 3SM BR OVC004 20/18 A3005 RMK AO2 T01960183
K66R 251015Z AUTO 23005KT 7SM OVC004 20/18 A3005 RMK AO2 T01970183
K66R 250955Z AUTO 22004KT 7SM OVC004 20/19 A3005 RMK AO2 T01970185
K66R 250935Z AUTO 21007KT 7SM OVC004 20/19 A3005 RMK AO2 T01980185
K66R 250915Z AUTO 21006KT 7SM OVC004 20/19 A3005 RMK AO2 T01980185
K66R 250855Z AUTO 19005KT 7SM OVC004 20/19 A3005 RMK AO2 T01970185
K66R 250830Z AUTO 19004KT 7SM OVC004 20/18 A3006 RMK AO2 T01950182
K66R 250815Z AUTO 18005KT 5SM BR OVC004 20/18 A3006 RMK AO2 T01950181
K66R 250755Z AUTO 18006KT 7SM OVC004 20/18 A3007 RMK AO2 LTG DSNT NE T01950180
K66R 250735Z AUTO 17004KT 10SM OVC006 19/18 A3007 RMK AO2 T01900176
K66R 250715Z AUTO 15003KT 10SM OVC008 19/17 A3008 RMK AO2 T01850170
K66R 250655Z AUTO 13003KT 7SM OVC010 18/16 A3008 RMK AO2 T01780157
K66R 250635Z AUTO 00000KT 7SM BKN010 OVC042 18/15 A3009 RMK AO2 T01750153
K66R 250615Z AUTO 00000KT 7SM BKN010 OVC042 18/15 A3009 RMK AO2 T01750153
K66R 250555Z AUTO 00000KT 7SM OVC042 17/15 A3009 RMK AO2 T01710148 10239 20170 402700160
K66R 250535Z AUTO 00000KT 3SM BR BKN042 17/15 A3008 RMK AO2 T01720149
K66R 250515Z AUTO 00000KT 7SM CLR 18/16 A3008 RMK AO2 T01780155
K66R 250455Z AUTO 00000KT 10SM CLR 18/16 A3008 RMK AO2 T01810158
K66R 250435Z AUTO 15003KT 10SM CLR 19/17 A3007 RMK AO2 T01850167
K66R 250415Z AUTO 15003KT 10SM CLR 19/17 A3007 RMK AO2 T01860169
K66R 250355Z AUTO 15003KT 10SM CLR 19/17 A3007 RMK AO2 T01890166
K66R 250335Z AUTO 17003KT 10SM CLR 20/17 A3007 RMK AO2 T01950173
K66R 250315Z AUTO 17004KT 10SM SCT044 20/18 A3007 RMK AO2 T01980175
K66R 250255Z AUTO 18006KT 10SM SCT044 20/18 A3007 RMK AO2 T02020175
K66R 250235Z AUTO 17006KT 10SM CLR 21/18 A3006 RMK AO2 T02050176
K66R 250215Z AUTO 17008KT 10SM CLR 21/18 A3005 RMK AO2 T02100177
K66R 250155Z AUTO 17007G14KT 10SM CLR 21/18 A3004 RMK AO2 T02110178
K66R 250135Z AUTO 17007KT 10SM SCT019 22/18 A3004 RMK AO2 LTG DSNT NW T02150179
K66R 250115Z AUTO 16007KT 10SM SCT019 22/18 A3003 RMK AO2 T02160178
K66R 250055Z AUTO 17006KT 10SM CLR 22/18 A3003 RMK AO2 T02210178
K66R 250035Z AUTO 17009KT 10SM CLR 23/18 A3002 RMK AO2 T02260178
K66R 250015Z AUTO 17009KT 10SM CLR 23/18 A3003 RMK AO2 T02330177
K66R 242355Z AUTO 16010G14KT 10SM CLR 24/18 A3003 RMK AO2 T02400176 10270 20240
K66R 242335Z AUTO 17009G18KT 10SM SCT026 25/17 A3003 RMK AO2 T02490174
K66R 242315Z AUTO 18009G16KT 10SM CLR 25/18 A3003 RMK AO2 T02510175
K66R 242255Z AUTO 18010G15KT 10SM SCT030 SCT040 SCT049 26/17 A3003 RMK AO2 T02610174
K66R 242235Z AUTO 19008G16KT 10SM SCT030 BKN042 BKN049 26/17 A3002 RMK AO2 T02620173
K66R 242215Z AUTO 18009G14KT 10SM SCT030 SCT036 OVC060 26/18 A3003 RMK AO2 T02630177
K66R 242155Z AUTO 18009KT 10SM OVC060 27/17 A3004 RMK AO2 T02650173
K66R 242135Z AUTO 17012G15KT 10SM SCT033 OVC060 27/18 A3003 RMK AO2 T02660175
K66R 242115Z AUTO 17010KT 10SM SCT033 SCT043 OVC060 26/17 A3004 RMK AO2 T02640173
K66R 242055Z AUTO 19008KT 10SM SCT033 OVC060 27/17 A3005 RMK AO2 T02680167
K66R 242035Z AUTO 19008KT 10SM SCT032 SCT041 OVC050 26/17 A3005 RMK AO2 T02600173
K66R 242015Z AUTO 18008G15KT 10SM BKN032 BKN040 OVC050 26/17 A3006 RMK AO2 T02600172
K66R 241955Z AUTO 20009KT 10SM SCT032 BKN038 OVC050 26/17 A3006 RMK AO2 T02630170
K66R 241935Z AUTO 19008KT 10SM SCT032 BKN041 OVC050 27/17 A3006 RMK AO2 T02660171
K66R 241915Z AUTO 16009KT 140V200 10SM SCT034 SCT041 OVC049 26/17 A3006 RMK AO2 T02640170
K66R 241855Z AUTO 18006KT 10SM SCT032 OVC049 26/17 A3007 RMK AO2 T02600171
K66R 241835Z AUTO 16008KT 10SM SCT029 BKN034 BKN049 26/17 A3008 RMK AO2 T02570174
K66R 241815Z AUTO 15008KT 10SM BKN027 BKN036 OVC048 26/18 A3009 RMK AO2 T02580176
K66R 241755Z AUTO 21008KT 10SM SCT024 BKN030 OVC048 25/17 A3010 RMK AO2 T02540174 10254 20160
K66R 241735Z AUTO 22006KT 10SM SCT024 SCT034 OVC045 25/18 A3011 RMK AO2 T02490176
K66R 241715Z AUTO 21006KT 10SM BKN023 BKN030 OVC045 24/17 A3012 RMK AO2 T02430172
K66R 241655Z AUTO 19007KT 10SM BKN019 OVC027 24/18 A3012 RMK AO2 T02420177
K66R 241635Z AUTO 20005KT 10SM BKN018 OVC023 23/18 A3013 RMK AO2 T02300178
K66R 241615Z AUTO 18009KT 10SM BKN015 OVC020 23/18 A3013 RMK AO2 T02250180
K66R 241555Z AUTO 18006KT 10SM OVC011 22/18 A3013 RMK AO2 T02190178
K66R 241535Z AUTO 16006KT 10SM BKN009 OVC013 22/18 A3014 RMK AO2 T02150176
K66R 241515Z AUTO 16005KT 10SM BKN006 OVC011 20/18 A3014 RMK AO2 T02040177
K66R 241455Z AUTO 16003KT 7SM OVC004 20/17 A3014 RMK AO2 T01950171
K66R 241435Z AUTO 16004KT 7SM OVC004 19/17 A3013 RMK AO2 T01910170
K66R 241415Z AUTO 15004KT 7SM OVC004 19/17 A3013 RMK AO2 T01900170
K66R 241355Z AUTO 16004KT 7SM OVC004 18/16 A3012 RMK AO2 T01830163
K66R 241335Z AUTO 00000KT 7SM OVC004 18/16 A3012 RMK AO2 T01800160
K66R 241315Z AUTO 13004KT 10SM OVC004 17/15 A3010 RMK AO2 T01730152
K66R 241255Z AUTO 13003KT 10SM OVC006 17/15 A3010 RMK AO2 T01670145
K66R 241235Z AUTO 00000KT 7SM OVC009 16/14 A3010 RMK AO2 T01620139
K66R 241215Z AUTO 00000KT 10SM BKN012 OVC018 16/13 A3011 RMK AO2 T01600133
K66R 241155Z AUTO 12003KT 10SM SCT011 BKN018 OVC030 16/13 A3010 RMK AO2 T01610133 10173 20161
K66R 241135Z AUTO 00000KT 10SM SCT006 BKN025 OVC030 16/14 A3010 RMK AO2 T01630136
K66R 241115Z AUTO 11003KT 10SM BKN006 OVC032 17/14 A3010 RMK AO2 T01650137
K66R 241055Z AUTO 11004KT 10SM BKN006 OVC034 17/14 A3009 RMK AO2 T01650136
K66R 241035Z AUTO 10004KT 10SM SCT008 SCT017 OVC034 17/14 A3009 RMK AO2 T01660138
K66R 241015Z AUTO 11003KT 10SM BKN008 OVC017 17/14 A3009 RMK AO2 T01680140
K66R 240955Z AUTO 11003KT 10SM OVC010 17/14 A3009 RMK AO2 T01680141
K66R 240935Z AUTO 00000KT 10SM OVC010 17/14 A3009 RMK AO2 T01670140
K66R 240915Z AUTO 00000KT 10SM OVC012 17/14 A3009 RMK AO2 T01680140
K66R 240855Z AUTO 00000KT 10SM OVC012 17/14 A3009 RMK AO2 T01680140
K66R 240835Z AUTO 11003KT 10SM OVC012 17/14 A3008 RMK AO2 T01700138
K66R 240815Z AUTO 13004KT 10SM OVC012 17/14 A3009 RMK AO2 T01700142
K66R 240755Z AUTO 00000KT 10SM OVC014 17/14 A3009 RMK AO2 T01710143
K66R 240735Z AUTO 00000KT 10SM OVC020 17/14 A3010 RMK AO2 T01710140
K66R 240715Z AUTO 11003KT 10SM OVC024 17/14 A3010 RMK AO2 T01720141
K66R 240655Z AUTO 00000KT 10SM OVC024 17/14 A3010 RMK AO2 T01720143
K66R 240635Z AUTO 13003KT 10SM OVC024 17/14 A3010 RMK AO2 T01710143
K66R 240615Z AUTO 00000KT 10SM OVC026 17/15 A3010 RMK AO2 T01710145
K66R 240555Z AUTO 14003KT 10SM OVC026 17/14 A3010 RMK AO2 T01710144 10220 20171 402560145